Current Weather

Gjoa Haven

Gjoa Haven, Canada (CYHK)

Report from: Tuesday, May 21, 2024 12:00 PM CDT
Current time: Tuesday, May 21, 2024 12:49 PM CDT

Nearby weather – Weather history – Daily summaries
Weather forecast

Present weatherLight snow grains, mist
Temperature-3.0°C (26.6°F)
Wind chill-8.1°C (17.5°F)
Dew point-3.0°C (26.6°F)
Winds 8 kts (4.1 m/s, 9.2 mph) South-Southwest (200°)
Visibility3960 ft. (1.2 km)
Clouds Ceiling: Vertical visibility 300 ft. (91 m)
Altimeter30.31 in.Hg (1026 mB)
Relative humidity100 %
Density altitude-2,612 ft. (-796 m)
Sea-level pressure102.7 kPa (1027 mB, 30.33 in.Hg)
Remarks Visibility
Flight conditions Low Instrument Meteorological Conditions
Raw dataCYHK 211700Z 20008KT 3/4SM -SG BR VV003 M03/M03 A3031 RMK FG8 VIS VRB 1/2- 1 1/4 SLP271
An error has occurred. This application may no longer respond until reloaded. Reload 🗙